Time;durP1;ratioP1;P1;durP2;ratioP2;P2;SDS_P1;SDS_P2;PMS_P1;PMS_P2;Temp;Humidity;BMP_temperature;BMP_pressure;BME280_temperature;BME280_humidity;BME280_pressure;Samples;Min_cycle;Max_cycle;Signal;HPM_P1;HPM_P2
2022/11/13 00:00:13;;;;;;;;;;;11.20;73.90;;;;;;4943561;29;19933;-80
2022/11/13 00:02:57;;;;;;;;;;;11.20;73.90;;;;;;4956802;29;19926;-81
2022/11/13 00:05:41;;;;;;;;;;;11.20;73.90;;;;;;4958252;29;19925;-80
2022/11/13 00:08:25;;;;;;;;;;;11.20;73.90;;;;;;4943549;29;19962;-80
2022/11/13 00:11:17;;;;;;;;;;;11.20;73.90;;;;;;4957534;29;19922;-79
2022/11/13 00:14:02;;;;;;;;;;;11.20;73.90;;;;;;4958426;29;20260;-80
2022/11/13 00:16:46;;;;;;;;;;;11.10;73.90;;;;;;4957523;29;19921;-80
2022/11/13 00:19:30;;;;;;;;;;;11.10;73.90;;;;;;4957792;29;19977;-81
2022/11/13 00:22:15;;;;;;;;;;;11.10;73.90;;;;;;4957175;29;20061;-80
2022/11/13 00:24:59;;;;;;;;;;;11.10;73.90;;;;;;4943076;29;19930;-79
2022/11/13 00:27:43;;;;;;;;;;;11.10;73.90;;;;;;4943585;29;19925;-80
2022/11/13 00:30:27;;;;;;;;;;;11.10;73.90;;;;;;4956348;29;19965;-80
2022/11/13 00:33:12;;;;;;;;;;;11.10;73.90;;;;;;4943200;29;20387;-80
2022/11/13 00:36:04;;;;;;;;;;;11.10;73.90;;;;;;4957897;29;19969;-81
2022/11/13 00:38:48;;;;;;;;;;;11.10;73.90;;;;;;4957855;29;19925;-79
2022/11/13 00:41:32;;;;;;;;;;;11.10;73.90;;;;;;4956339;29;19921;-80
2022/11/13 00:44:17;;;;;;;;;;;11.10;74.00;;;;;;4957338;29;19925;-80
2022/11/13 00:47:01;;;;;;;;;;;11.10;74.00;;;;;;4957185;29;19930;-80
2022/11/13 00:49:45;;;;;;;;;;;11.00;73.90;;;;;;4956605;29;19981;-80
2022/11/13 00:52:29;;;;;;;;;;;11.10;74.00;;;;;;4943042;29;19969;-81
2022/11/13 00:55:13;;;;;;;;;;;11.10;74.00;;;;;;4957243;29;20438;-80
2022/11/13 00:57:58;;;;;;;;;;;11.10;74.00;;;;;;4942817;29;19929;-80
2022/11/13 01:00:43;;;;;;;;;;;11.10;74.10;;;;;;4955216;28;19929;-80
2022/11/13 01:03:28;;;;;;;;;;;11.10;74.00;;;;;;4956154;29;20351;-80
2022/11/13 01:06:17;;;;;;;;;;;11.10;74.00;;;;;;4942804;29;20263;-81
2022/11/13 01:09:02;;;;;;;;;;;11.00;74.00;;;;;;4956919;29;19921;-81
2022/11/13 01:11:46;;;;;;;;;;;11.10;74.10;;;;;;4956948;29;20334;-80
2022/11/13 01:14:30;;;;;;;;;;;11.00;74.00;;;;;;4957022;29;20009;-80
2022/11/13 01:17:14;;;;;;;;;;;11.00;74.00;;;;;;4955872;29;19926;-81
2022/11/13 01:19:59;;;;;;;;;;;11.00;74.00;;;;;;4941885;29;19994;-80
2022/11/13 01:22:43;;;;;;;;;;;11.00;74.00;;;;;;4955636;29;20268;-80
2022/11/13 01:25:27;;;;;;;;;;;11.00;74.00;;;;;;4957154;29;19942;-80
2022/11/13 01:28:11;;;;;;;;;;;11.00;74.20;;;;;;4955588;29;20305;-79
2022/11/13 01:30:55;;;;;;;;;;;11.00;74.00;;;;;;4955106;29;19969;-80
2022/11/13 01:33:40;;;;;;;;;;;11.00;74.00;;;;;;4955618;29;20299;-80
2022/11/13 01:36:26;;;;;;;;;;;11.00;74.00;;;;;;4956773;29;20028;-80
2022/11/13 01:39:10;;;;;;;;;;;11.00;74.00;;;;;;4955772;29;20452;-80
2022/11/13 01:41:54;;;;;;;;;;;11.00;74.00;;;;;;4955193;29;19921;-80
2022/11/13 01:45:08;;;;;;;;;;;10.90;73.90;;;;;;4955437;29;19933;-80
2022/11/13 01:47:52;;;;;;;;;;;11.00;74.00;;;;;;4953633;29;19925;-80
2022/11/13 01:50:37;;;;;;;;;;;11.00;74.00;;;;;;4941610;29;20371;-80
2022/11/13 01:53:21;;;;;;;;;;;11.00;74.00;;;;;;4955504;29;20025;-80
2022/11/13 01:56:06;;;;;;;;;;;11.00;74.00;;;;;;4941461;29;19941;-80
2022/11/13 01:58:53;;;;;;;;;;;10.90;74.00;;;;;;4954936;29;19921;-80
2022/11/13 02:01:38;;;;;;;;;;;10.90;74.00;;;;;;4954814;29;20026;-82
2022/11/13 02:04:22;;;;;;;;;;;10.90;74.00;;;;;;4940974;29;19929;-81
2022/11/13 02:07:08;;;;;;;;;;;10.90;73.90;;;;;;4941398;29;19957;-81
2022/11/13 02:09:53;;;;;;;;;;;10.90;74.00;;;;;;4954781;29;19938;-79
2022/11/13 02:12:39;;;;;;;;;;;10.90;74.00;;;;;;4953533;29;19920;-79
2022/11/13 02:15:24;;;;;;;;;;;10.90;74.00;;;;;;4954386;29;19922;-80
2022/11/13 02:18:09;;;;;;;;;;;10.90;74.00;;;;;;4954669;29;20224;-80
2022/11/13 02:21:13;;;;;;;;;;;10.80;73.90;;;;;;4954756;29;19921;-81
2022/11/13 02:24:03;;;;;;;;;;;10.80;73.90;;;;;;4954560;29;19964;-81
2022/11/13 02:26:49;;;;;;;;;;;10.80;73.90;;;;;;4954891;29;20283;-82
2022/11/13 02:29:33;;;;;;;;;;;10.80;74.00;;;;;;4953864;29;19969;-80
2022/11/13 02:32:18;;;;;;;;;;;10.80;74.00;;;;;;4954495;29;19984;-78
2022/11/13 02:35:02;;;;;;;;;;;10.80;74.00;;;;;;4940856;29;20289;-79
2022/11/13 02:37:46;;;;;;;;;;;10.80;74.00;;;;;;4954887;29;19972;-80
2022/11/13 02:40:30;;;;;;;;;;;10.80;74.00;;;;;;4953835;29;19938;-81
2022/11/13 02:43:15;;;;;;;;;;;10.80;74.00;;;;;;4954021;29;19950;-81
2022/11/13 02:45:59;;;;;;;;;;;10.70;74.00;;;;;;4954675;29;19983;-80
2022/11/13 02:48:43;;;;;;;;;;;10.70;73.90;;;;;;4955229;29;20366;-81
2022/11/13 02:51:27;;;;;;;;;;;10.80;74.00;;;;;;4954577;29;20010;-80
2022/11/13 02:54:11;;;;;;;;;;;10.70;74.00;;;;;;4954994;29;19926;-81
2022/11/13 02:56:55;;;;;;;;;;;10.70;74.00;;;;;;4954565;29;19929;-80
2022/11/13 02:59:40;;;;;;;;;;;10.70;74.00;;;;;;4890160;28;1876161;-80
2022/11/13 03:02:24;;;;;;;;;;;10.70;74.00;;;;;;4955280;29;19941;-80
2022/11/13 03:05:08;;;;;;;;;;;10.70;74.00;;;;;;4955698;29;20423;-80
2022/11/13 03:07:53;;;;;;;;;;;10.70;74.00;;;;;;4955417;29;19961;-80
2022/11/13 03:10:39;;;;;;;;;;;10.70;74.00;;;;;;4940507;29;19925;-79
2022/11/13 03:13:24;;;;;;;;;;;10.70;74.10;;;;;;4954921;29;19938;-80
2022/11/13 03:16:09;;;;;;;;;;;10.70;74.00;;;;;;4940733;29;19977;-80
2022/11/13 03:18:54;;;;;;;;;;;10.70;74.00;;;;;;4954226;29;19976;-81
2022/11/13 03:21:38;;;;;;;;;;;10.70;74.10;;;;;;4954151;29;19925;-80
2022/11/13 03:24:22;;;;;;;;;;;10.70;74.00;;;;;;4957869;28;20005;-80
2022/11/13 03:27:06;;;;;;;;;;;10.70;74.10;;;;;;4957989;29;19941;-81
2022/11/13 03:29:51;;;;;;;;;;;10.70;74.00;;;;;;4957541;29;19961;-80
2022/11/13 03:32:35;;;;;;;;;;;10.70;74.10;;;;;;4958897;29;19926;-80
2022/11/13 03:35:19;;;;;;;;;;;10.70;74.10;;;;;;4957518;29;19970;-79
2022/11/13 03:38:03;;;;;;;;;;;10.60;74.00;;;;;;4958872;29;19925;-80
2022/11/13 03:40:47;;;;;;;;;;;10.70;74.10;;;;;;4957368;29;19978;-80
2022/11/13 03:43:32;;;;;;;;;;;10.70;74.10;;;;;;4944172;29;20323;-82
2022/11/13 03:46:16;;;;;;;;;;;10.60;74.00;;;;;;4957341;29;20450;-81
2022/11/13 03:49:00;;;;;;;;;;;10.60;74.00;;;;;;4957235;29;20009;-81
2022/11/13 03:51:44;;;;;;;;;;;10.60;74.00;;;;;;4957671;29;19925;-81
2022/11/13 03:54:28;;;;;;;;;;;10.60;74.00;;;;;;4962261;29;19924;-80
2022/11/13 03:57:13;;;;;;;;;;;10.70;74.10;;;;;;4959459;29;19922;-80
2022/11/13 03:59:57;;;;;;;;;;;10.60;74.00;;;;;;4957995;29;19984;-80
2022/11/13 04:02:41;;;;;;;;;;;10.60;74.00;;;;;;4957618;29;19929;-80
2022/11/13 04:05:25;;;;;;;;;;;10.60;74.00;;;;;;4958346;29;19965;-80
2022/11/13 04:08:09;;;;;;;;;;;10.60;74.00;;;;;;4956883;29;20291;-80
2022/11/13 04:10:53;;;;;;;;;;;10.60;74.00;;;;;;4956810;29;20379;-80
2022/11/13 04:13:38;;;;;;;;;;;10.60;74.10;;;;;;4956944;29;20017;-79
2022/11/13 04:16:22;;;;;;;;;;;10.60;74.10;;;;;;4956806;29;20379;-80
2022/11/13 04:19:06;;;;;;;;;;;10.60;74.10;;;;;;4956893;29;19921;-80
2022/11/13 04:21:50;;;;;;;;;;;10.60;74.10;;;;;;4957354;29;19926;-80
2022/11/13 04:24:34;;;;;;;;;;;10.60;74.10;;;;;;4956519;29;20014;-80
2022/11/13 04:27:19;;;;;;;;;;;10.60;74.10;;;;;;4943644;29;19933;-81
2022/11/13 04:30:04;;;;;;;;;;;10.60;74.10;;;;;;4946223;29;19926;-82
2022/11/13 04:32:48;;;;;;;;;;;10.60;74.10;;;;;;4960550;29;19969;-80
2022/11/13 04:35:33;;;;;;;;;;;10.60;74.10;;;;;;4956098;28;20417;-80
2022/11/13 04:38:17;;;;;;;;;;;10.60;74.10;;;;;;4957385;29;19921;-80
2022/11/13 04:44:05;;;;;;;;;;;10.60;74.10;;;;;;4957159;29;20395;-81
2022/11/13 04:46:49;;;;;;;;;;;10.50;74.00;;;;;;4957397;29;20287;-80
2022/11/13 04:49:33;;;;;;;;;;;10.60;74.10;;;;;;4956946;29;19973;-80
2022/11/13 04:52:17;;;;;;;;;;;10.50;74.00;;;;;;4956864;29;19974;-80
2022/11/13 04:55:02;;;;;;;;;;;10.50;74.00;;;;;;4957017;29;19922;-81
2022/11/13 04:57:46;;;;;;;;;;;10.50;74.00;;;;;;4957607;29;19921;-80
2022/11/13 05:00:31;;;;;;;;;;;10.50;74.00;;;;;;4957047;29;19929;-80
2022/11/13 05:03:15;;;;;;;;;;;10.50;74.00;;;;;;4956351;29;20354;-80
2022/11/13 05:06:03;;;;;;;;;;;10.50;74.00;;;;;;4956992;29;19976;-81
2022/11/13 05:08:47;;;;;;;;;;;10.50;74.00;;;;;;4957412;29;19969;-80
2022/11/13 05:11:31;;;;;;;;;;;10.50;74.00;;;;;;4955856;29;19966;-80
2022/11/13 05:14:16;;;;;;;;;;;10.50;74.00;;;;;;4955919;29;19981;-81
2022/11/13 05:17:00;;;;;;;;;;;10.50;74.00;;;;;;4956182;29;19934;-80
2022/11/13 05:19:44;;;;;;;;;;;10.40;74.00;;;;;;4956224;29;20013;-80
2022/11/13 05:22:28;;;;;;;;;;;10.40;74.00;;;;;;4955527;29;19929;-81
2022/11/13 05:25:12;;;;;;;;;;;10.50;74.00;;;;;;4956147;29;20375;-80
2022/11/13 05:27:57;;;;;;;;;;;10.40;73.90;;;;;;4942550;29;19925;-80
2022/11/13 05:30:41;;;;;;;;;;;10.40;74.00;;;;;;4957009;29;19920;-80
2022/11/13 05:33:27;;;;;;;;;;;10.40;73.90;;;;;;4955511;29;20282;-80
2022/11/13 05:36:12;;;;;;;;;;;10.40;74.00;;;;;;4956042;29;19921;-81
2022/11/13 05:38:57;;;;;;;;;;;10.40;74.00;;;;;;4955923;29;19961;-80
2022/11/13 05:41:41;;;;;;;;;;;10.40;74.00;;;;;;4955668;29;19925;-80
2022/11/13 05:44:25;;;;;;;;;;;10.40;73.90;;;;;;4955125;29;20287;-80
2022/11/13 05:47:09;;;;;;;;;;;10.40;74.00;;;;;;4955156;28;19972;-80
2022/11/13 05:49:54;;;;;;;;;;;10.40;74.00;;;;;;4955734;29;19984;-80
2022/11/13 05:52:38;;;;;;;;;;;10.40;73.90;;;;;;4956789;29;19941;-80
2022/11/13 05:55:22;;;;;;;;;;;10.40;74.00;;;;;;4955695;29;20025;-80
2022/11/13 05:58:10;;;;;;;;;;;10.30;73.90;;;;;;4956570;29;19926;-81
2022/11/13 06:01:05;;;;;;;;;;;10.30;73.90;;;;;;4954699;29;19974;-80
2022/11/13 06:03:49;;;;;;;;;;;10.30;73.90;;;;;;4941662;29;19945;-81
2022/11/13 06:06:34;;;;;;;;;;;10.30;73.90;;;;;;4955345;29;19926;-80
2022/11/13 06:09:18;;;;;;;;;;;10.30;73.90;;;;;;4955944;29;20191;-81
2022/11/13 06:12:02;;;;;;;;;;;10.30;73.90;;;;;;4954831;29;20376;-80
2022/11/13 06:14:46;;;;;;;;;;;10.20;73.90;;;;;;4956300;29;19966;-80
2022/11/13 06:17:31;;;;;;;;;;;10.20;73.90;;;;;;4956015;29;20036;-80
2022/11/13 06:20:15;;;;;;;;;;;10.20;73.90;;;;;;4956464;29;19998;-81
2022/11/13 06:22:59;;;;;;;;;;;10.20;73.90;;;;;;4955613;29;19927;-80
2022/11/13 06:25:43;;;;;;;;;;;10.20;73.90;;;;;;4955978;29;19929;-80
2022/11/13 06:28:27;;;;;;;;;;;10.20;73.90;;;;;;4955171;29;20022;-80
2022/11/13 06:31:14;;;;;;;;;;;10.20;73.90;;;;;;4955957;29;19921;-80
2022/11/13 06:33:59;;;;;;;;;;;10.20;73.90;;;;;;4956404;29;19925;-79
2022/11/13 06:36:43;;;;;;;;;;;10.20;73.90;;;;;;4954915;29;19921;-80
2022/11/13 06:39:27;;;;;;;;;;;10.20;73.90;;;;;;4956380;29;19977;-79
2022/11/13 06:42:11;;;;;;;;;;;10.10;73.80;;;;;;4941270;29;19926;-80
2022/11/13 06:44:56;;;;;;;;;;;10.10;73.90;;;;;;4941732;29;20404;-80
2022/11/13 06:47:40;;;;;;;;;;;10.10;73.90;;;;;;4941752;29;20141;-79
2022/11/13 06:50:24;;;;;;;;;;;10.10;73.80;;;;;;4954636;29;19978;-80
2022/11/13 06:53:08;;;;;;;;;;;10.10;73.80;;;;;;4956106;29;19952;-80
2022/11/13 06:55:52;;;;;;;;;;;10.10;73.90;;;;;;4955007;29;20271;-80
2022/11/13 06:58:37;;;;;;;;;;;10.10;73.90;;;;;;4958124;28;20271;-80
2022/11/13 07:01:22;;;;;;;;;;;10.00;73.80;;;;;;4958706;29;19929;-79
2022/11/13 07:04:10;;;;;;;;;;;10.00;73.80;;;;;;4958518;29;19930;-80
2022/11/13 07:06:54;;;;;;;;;;;10.00;73.90;;;;;;4959620;29;19999;-80
2022/11/13 07:09:38;;;;;;;;;;;10.00;73.80;;;;;;4959369;29;20303;-80
2022/11/13 07:12:22;;;;;;;;;;;10.00;73.80;;;;;;4957803;29;19926;-80
2022/11/13 07:15:07;;;;;;;;;;;10.00;73.80;;;;;;4958483;29;20390;-81
2022/11/13 07:17:51;;;;;;;;;;;10.00;73.90;;;;;;4959448;29;19981;-79
2022/11/13 07:20:35;;;;;;;;;;;9.90;73.80;;;;;;4958146;29;20275;-80
2022/11/13 07:23:19;;;;;;;;;;;9.90;73.80;;;;;;4957691;29;19929;-79
2022/11/13 07:26:04;;;;;;;;;;;9.90;73.80;;;;;;4959270;29;19925;-81
2022/11/13 07:28:48;;;;;;;;;;;9.90;73.80;;;;;;4944990;29;20001;-80
2022/11/13 07:31:32;;;;;;;;;;;9.90;73.90;;;;;;4959138;29;20057;-80
2022/11/13 07:34:16;;;;;;;;;;;9.90;73.80;;;;;;4958485;29;19926;-82
2022/11/13 07:37:01;;;;;;;;;;;9.90;73.80;;;;;;4959153;29;20254;-82
2022/11/13 07:39:46;;;;;;;;;;;9.90;73.90;;;;;;4958997;29;19946;-81
2022/11/13 07:42:30;;;;;;;;;;;9.90;74.50;;;;;;4943443;29;19974;-81
2022/11/13 07:45:14;;;;;;;;;;;9.90;73.90;;;;;;4957421;29;20006;-79
2022/11/13 07:48:02;;;;;;;;;;;9.80;73.80;;;;;;4958139;29;20450;-80
2022/11/13 07:50:46;;;;;;;;;;;9.80;73.80;;;;;;4957503;29;20006;-80
2022/11/13 07:53:30;;;;;;;;;;;9.80;73.80;;;;;;4958010;29;19930;-80
2022/11/13 07:56:14;;;;;;;;;;;9.80;73.90;;;;;;4944114;29;19925;-80
2022/11/13 07:58:59;;;;;;;;;;;9.80;73.90;;;;;;4958540;29;19976;-80
2022/11/13 08:01:43;;;;;;;;;;;9.80;73.90;;;;;;4958095;29;19929;-80
2022/11/13 08:04:28;;;;;;;;;;;9.80;73.90;;;;;;4943118;29;20282;-80
2022/11/13 08:07:12;;;;;;;;;;;9.80;73.90;;;;;;4956957;29;19925;-80
2022/11/13 08:09:57;;;;;;;;;;;9.80;73.90;;;;;;4958375;28;19973;-80
2022/11/13 08:12:41;;;;;;;;;;;9.80;73.90;;;;;;4956831;29;19965;-81
2022/11/13 08:15:25;;;;;;;;;;;9.80;73.90;;;;;;4957886;29;19925;-80
2022/11/13 08:18:09;;;;;;;;;;;9.80;73.90;;;;;;4957275;29;19974;-81
2022/11/13 08:20:54;;;;;;;;;;;9.80;73.90;;;;;;4956810;29;19925;-81
2022/11/13 08:23:39;;;;;;;;;;;9.80;73.90;;;;;;4957206;29;19925;-81
2022/11/13 08:26:23;;;;;;;;;;;9.80;74.00;;;;;;4957627;29;19942;-81
2022/11/13 08:29:07;;;;;;;;;;;9.80;73.90;;;;;;4956606;29;20283;-81
2022/11/13 08:31:52;;;;;;;;;;;9.80;73.90;;;;;;4957396;29;19929;-81
2022/11/13 08:34:36;;;;;;;;;;;9.80;74.00;;;;;;4958252;29;19965;-81
2022/11/13 08:37:20;;;;;;;;;;;9.80;74.00;;;;;;4957679;29;19969;-80
2022/11/13 08:40:05;;;;;;;;;;;9.80;74.00;;;;;;4957055;29;20398;-80
2022/11/13 08:42:49;;;;;;;;;;;9.80;74.00;;;;;;4957450;29;20012;-82
2022/11/13 08:45:33;;;;;;;;;;;9.80;74.00;;;;;;4956516;29;19929;-80
2022/11/13 08:48:17;;;;;;;;;;;9.80;74.00;;;;;;4957580;29;19982;-81
2022/11/13 08:51:01;;;;;;;;;;;9.80;74.00;;;;;;4957418;29;19921;-81
2022/11/13 08:53:46;;;;;;;;;;;9.80;74.00;;;;;;4955823;29;19925;-81
2022/11/13 08:56:30;;;;;;;;;;;9.80;74.00;;;;;;4957105;29;20389;-81
2022/11/13 08:59:14;;;;;;;;;;;9.80;74.00;;;;;;4956882;29;19969;-81
2022/11/13 09:01:59;;;;;;;;;;;9.90;74.10;;;;;;4957187;29;19937;-80
2022/11/13 09:04:43;;;;;;;;;;;9.90;74.10;;;;;;4956160;29;19969;-80
2022/11/13 09:07:27;;;;;;;;;;;9.90;74.10;;;;;;4955770;29;19930;-79
2022/11/13 09:10:11;;;;;;;;;;;9.90;74.10;;;;;;4942102;29;19925;-80
2022/11/13 09:13:00;;;;;;;;;;;10.00;74.10;;;;;;4957105;29;19922;-80
2022/11/13 09:15:44;;;;;;;;;;;10.00;74.20;;;;;;4955682;29;19926;-80
2022/11/13 09:18:29;;;;;;;;;;;10.00;74.10;;;;;;4956008;29;20391;-81
2022/11/13 09:21:13;;;;;;;;;;;10.00;74.10;;;;;;4956298;28;19926;-82
2022/11/13 09:23:57;;;;;;;;;;;10.10;74.20;;;;;;4941747;29;20387;-81
2022/11/13 09:26:41;;;;;;;;;;;10.10;74.20;;;;;;4955563;29;20291;-81
2022/11/13 09:29:27;;;;;;;;;;;10.10;74.20;;;;;;4955244;29;20403;-82
2022/11/13 09:32:11;;;;;;;;;;;10.10;74.20;;;;;;4956312;29;19934;-80
2022/11/13 09:34:56;;;;;;;;;;;10.20;74.30;;;;;;4955764;29;19977;-79
2022/11/13 09:37:40;;;;;;;;;;;10.20;74.30;;;;;;4956255;29;20275;-81
2022/11/13 09:40:26;;;;;;;;;;;10.20;74.30;;;;;;4955257;29;19926;-80
2022/11/13 09:43:26;;;;;;;;;;;10.20;74.30;;;;;;4955259;29;20032;-82
2022/11/13 09:46:10;;;;;;;;;;;10.30;74.40;;;;;;4955106;29;19926;-80
2022/11/13 09:48:57;;;;;;;;;;;10.30;74.30;;;;;;4955449;29;19922;-80
2022/11/13 09:52:05;;;;;;;;;;;10.40;74.40;;;;;;4956406;29;20043;-80
2022/11/13 09:54:49;;;;;;;;;;;10.40;74.40;;;;;;4954671;28;19953;-80
2022/11/13 09:57:33;;;;;;;;;;;10.40;74.40;;;;;;4956606;29;20033;-80
2022/11/13 10:00:19;;;;;;;;;;;10.50;74.50;;;;;;4955428;29;20375;-80
2022/11/13 10:03:09;;;;;;;;;;;10.50;74.50;;;;;;4956892;29;19930;-80
2022/11/13 10:05:59;;;;;;;;;;;10.50;74.50;;;;;;4955948;29;19934;-82
2022/11/13 10:08:54;;;;;;;;;;;10.50;74.50;;;;;;4956603;29;20017;-79
2022/11/13 10:11:47;;;;;;;;;;;10.60;74.50;;;;;;4955749;29;20244;-80
2022/11/13 10:14:34;;;;;;;;;;;10.60;74.50;;;;;;4957149;29;19961;-81
2022/11/13 10:17:30;;;;;;;;;;;10.70;74.60;;;;;;4956695;29;20056;-82
2022/11/13 10:20:20;;;;;;;;;;;10.70;74.60;;;;;;4956256;29;19937;-81
2022/11/13 10:23:17;;;;;;;;;;;10.70;74.60;;;;;;4955167;29;19973;-80
2022/11/13 10:26:15;;;;;;;;;;;10.70;74.60;;;;;;4955217;29;19921;-80
2022/11/13 10:29:01;;;;;;;;;;;10.80;74.60;;;;;;4955188;29;19921;-80
2022/11/13 10:31:47;;;;;;;;;;;10.80;74.70;;;;;;4955881;28;19920;-80
2022/11/13 10:34:32;;;;;;;;;;;10.80;74.60;;;;;;4958103;29;20116;-80
2022/11/13 10:37:23;;;;;;;;;;;10.80;74.60;;;;;;4945611;29;19925;-81
2022/11/13 10:40:07;;;;;;;;;;;10.90;74.70;;;;;;4959505;29;19921;-81
2022/11/13 10:42:51;;;;;;;;;;;10.90;74.70;;;;;;4958880;29;19969;-80
2022/11/13 10:45:36;;;;;;;;;;;10.90;74.70;;;;;;4959009;29;19973;-81
2022/11/13 10:48:40;;;;;;;;;;;11.00;74.70;;;;;;4958940;29;20005;-80
2022/11/13 10:51:26;;;;;;;;;;;11.00;74.70;;;;;;4958353;29;20066;-81
2022/11/13 10:54:30;;;;;;;;;;;11.00;74.70;;;;;;4958671;29;19962;-80
2022/11/13 10:57:23;;;;;;;;;;;11.00;74.70;;;;;;4959781;29;19982;-80
2022/11/13 11:00:18;;;;;;;;;;;11.00;74.60;;;;;;4959924;29;20362;-81
2022/11/13 11:03:06;;;;;;;;;;;11.10;74.70;;;;;;4958904;29;19977;-80
2022/11/13 11:05:51;;;;;;;;;;;11.10;74.70;;;;;;4958637;29;19921;-81
2022/11/13 11:08:36;;;;;;;;;;;11.20;74.80;;;;;;4959518;29;20268;-81
2022/11/13 11:14:27;;;;;;;;;;;11.20;74.80;;;;;;4958591;29;19925;-80
2022/11/13 11:17:13;;;;;;;;;;;11.20;74.80;;;;;;4959233;29;20304;-82
2022/11/13 11:20:06;;;;;;;;;;;11.30;74.80;;;;;;4958313;29;20279;-78
2022/11/13 11:22:54;;;;;;;;;;;11.30;74.80;;;;;;4959056;29;20325;-81
2022/11/13 11:25:41;;;;;;;;;;;11.30;74.80;;;;;;4958410;29;19937;-79
2022/11/13 11:28:43;;;;;;;;;;;11.30;74.80;;;;;;4959285;29;19921;-80
2022/11/13 11:31:31;;;;;;;;;;;11.40;74.80;;;;;;4959205;29;19922;-80
2022/11/13 11:34:30;;;;;;;;;;;11.40;74.80;;;;;;4957990;29;19921;-80
2022/11/13 11:37:20;;;;;;;;;;;11.40;74.80;;;;;;4958156;29;19922;-80
2022/11/13 11:40:10;;;;;;;;;;;11.50;74.90;;;;;;4958956;29;19917;-79
2022/11/13 11:42:59;;;;;;;;;;;11.50;74.90;;;;;;4958014;29;19965;-79
2022/11/13 11:45:45;;;;;;;;;;;11.50;74.90;;;;;;4958549;29;19936;-81
2022/11/13 11:48:29;;;;;;;;;;;11.50;74.90;;;;;;4958290;29;20424;-79
2022/11/13 11:51:13;;;;;;;;;;;11.60;75.00;;;;;;4958266;29;20275;-80
2022/11/13 11:54:04;;;;;;;;;;;11.60;75.00;;;;;;4958758;29;20394;-77
2022/11/13 11:56:56;;;;;;;;;;;11.60;75.00;;;;;;4958641;29;20388;-79
2022/11/13 11:59:43;;;;;;;;;;;11.70;75.00;;;;;;4958174;29;19937;-79
2022/11/13 12:02:45;;;;;;;;;;;11.70;75.00;;;;;;4958836;29;19977;-80
2022/11/13 12:05:39;;;;;;;;;;;11.70;75.00;;;;;;4957622;29;19982;-80
2022/11/13 12:08:30;;;;;;;;;;;11.80;75.10;;;;;;4957505;29;19922;-80
2022/11/13 12:11:30;;;;;;;;;;;11.80;75.10;;;;;;4957586;29;19921;-80
2022/11/13 12:14:21;;;;;;;;;;;11.80;75.10;;;;;;4957507;29;20016;-80
2022/11/13 12:17:17;;;;;;;;;;;11.90;75.10;;;;;;4958494;29;19957;-79
2022/11/13 12:20:04;;;;;;;;;;;12.00;75.10;;;;;;4958396;29;19920;-80
2022/11/13 12:22:55;;;;;;;;;;;12.00;75.00;;;;;;4958213;29;19925;-80
2022/11/13 12:25:48;;;;;;;;;;;12.00;75.00;;;;;;4957758;29;19925;-80
2022/11/13 12:28:42;;;;;;;;;;;12.10;75.00;;;;;;4958090;29;20378;-80
2022/11/13 12:31:50;;;;;;;;;;;12.10;75.00;;;;;;4956568;29;20386;-79
2022/11/13 12:34:57;;;;;;;;;;;12.20;75.00;;;;;;4957547;29;19937;-80
2022/11/13 12:38:00;;;;;;;;;;;12.20;75.00;;;;;;4957644;29;19922;-79
2022/11/13 12:40:56;;;;;;;;;;;12.30;75.10;;;;;;4957354;29;19921;-79
2022/11/13 12:43:40;;;;;;;;;;;12.30;75.10;;;;;;4957710;29;19929;-80
2022/11/13 12:46:35;;;;;;;;;;;12.30;75.10;;;;;;4956840;29;19969;-80
2022/11/13 12:49:23;;;;;;;;;;;12.40;75.20;;;;;;4956997;29;20331;-79
2022/11/13 12:52:22;;;;;;;;;;;12.40;75.20;;;;;;4957640;29;20371;-79
2022/11/13 12:55:22;;;;;;;;;;;12.40;75.20;;;;;;4957342;28;19962;-79
2022/11/13 12:58:09;;;;;;;;;;;12.50;75.20;;;;;;4957578;29;19936;-79
2022/11/13 13:01:06;;;;;;;;;;;12.60;75.30;;;;;;4957432;29;19921;-79
2022/11/13 13:03:56;;;;;;;;;;;12.60;75.30;;;;;;4957253;29;20415;-80
2022/11/13 13:06:40;;;;;;;;;;;12.60;75.30;;;;;;4957483;29;19922;-79
2022/11/13 13:09:33;;;;;;;;;;;12.60;75.30;;;;;;4957431;29;19962;-79
2022/11/13 13:12:20;;;;;;;;;;;12.70;75.30;;;;;;4957717;29;19921;-79
2022/11/13 13:15:11;;;;;;;;;;;12.70;75.40;;;;;;4957564;29;20008;-79
2022/11/13 13:18:09;;;;;;;;;;;12.80;75.40;;;;;;4957069;29;20296;-79
2022/11/13 13:21:13;;;;;;;;;;;12.80;75.40;;;;;;4956856;29;19922;-80
2022/11/13 13:24:05;;;;;;;;;;;12.90;75.40;;;;;;4955537;29;20275;-79
2022/11/13 13:26:49;;;;;;;;;;;12.90;75.40;;;;;;4956567;29;20021;-80
2022/11/13 13:29:34;;;;;;;;;;;12.90;75.40;;;;;;4942422;29;20042;-79
2022/11/13 13:32:24;;;;;;;;;;;13.00;75.50;;;;;;4955245;29;19972;-80
2022/11/13 13:35:12;;;;;;;;;;;13.00;75.50;;;;;;4956199;29;19922;-79
2022/11/13 13:37:59;;;;;;;;;;;13.10;75.50;;;;;;4955341;29;20005;-79
2022/11/13 13:40:47;;;;;;;;;;;13.10;75.50;;;;;;4955756;29;20009;-79
2022/11/13 13:43:38;;;;;;;;;;;13.10;75.50;;;;;;4955612;29;19973;-80
2022/11/13 13:46:24;;;;;;;;;;;13.20;75.50;;;;;;4955728;29;20295;-80
2022/11/13 13:49:14;;;;;;;;;;;13.20;75.40;;;;;;4955848;29;19987;-80
2022/11/13 13:51:58;;;;;;;;;;;13.30;75.50;;;;;;4957197;29;19957;-80
2022/11/13 13:54:44;;;;;;;;;;;13.30;75.40;;;;;;4956144;29;19925;-79
2022/11/13 13:57:29;;;;;;;;;;;13.30;75.40;;;;;;4955536;29;19965;-80
2022/11/13 14:00:15;;;;;;;;;;;13.40;75.40;;;;;;4955095;29;19969;-81
2022/11/13 14:03:00;;;;;;;;;;;13.50;75.40;;;;;;4956009;29;19970;-80
2022/11/13 14:05:45;;;;;;;;;;;13.50;75.40;;;;;;4955848;29;20032;-81
2022/11/13 14:08:29;;;;;;;;;;;13.50;75.30;;;;;;4954746;28;20009;-80
2022/11/13 14:11:21;;;;;;;;;;;13.60;75.40;;;;;;4955716;29;19977;-80
2022/11/13 14:14:06;;;;;;;;;;;13.60;75.30;;;;;;4955446;29;19965;-79
2022/11/13 14:16:51;;;;;;;;;;;13.60;75.30;;;;;;4954860;29;19970;-80
2022/11/13 14:19:35;;;;;;;;;;;13.70;75.30;;;;;;4955305;29;19956;-80
2022/11/13 14:22:19;;;;;;;;;;;13.70;75.20;;;;;;4954824;29;19926;-80
2022/11/13 14:25:04;;;;;;;;;;;13.70;75.20;;;;;;4955436;29;20351;-78
2022/11/13 14:27:49;;;;;;;;;;;13.70;75.20;;;;;;4956254;29;20291;-80
2022/11/13 14:30:33;;;;;;;;;;;13.80;75.20;;;;;;4955309;29;19957;-80
2022/11/13 14:33:21;;;;;;;;;;;13.80;75.10;;;;;;4956264;29;19926;-80
2022/11/13 14:36:05;;;;;;;;;;;13.80;75.10;;;;;;4955151;29;20443;-80
2022/11/13 14:38:50;;;;;;;;;;;13.80;75.00;;;;;;4956106;29;19922;-80
2022/11/13 14:41:36;;;;;;;;;;;13.90;75.10;;;;;;4956082;29;19921;-79
2022/11/13 14:44:24;;;;;;;;;;;13.90;75.10;;;;;;4954299;29;20312;-79
2022/11/13 14:47:35;;;;;;;;;;;13.90;75.00;;;;;;4954560;29;19933;-79
2022/11/13 14:50:25;;;;;;;;;;;13.90;75.00;;;;;;4956109;29;20303;-80
2022/11/13 14:53:10;;;;;;;;;;;14.00;75.00;;;;;;4956033;29;20264;-80
2022/11/13 14:55:56;;;;;;;;;;;14.00;75.00;;;;;;4954543;29;19966;-80
2022/11/13 14:58:47;;;;;;;;;;;14.00;75.00;;;;;;4955527;29;19921;-80
2022/11/13 15:01:32;;;;;;;;;;;14.10;75.00;;;;;;4956517;29;19965;-80
2022/11/13 15:04:16;;;;;;;;;;;14.10;75.00;;;;;;4955532;29;20024;-80
2022/11/13 15:07:01;;;;;;;;;;;14.10;75.00;;;;;;4954569;29;20004;-80
2022/11/13 15:09:46;;;;;;;;;;;14.10;74.90;;;;;;4956070;29;19961;-80
2022/11/13 15:12:30;;;;;;;;;;;14.10;74.80;;;;;;4956168;29;20004;-80
2022/11/13 15:15:16;;;;;;;;;;;14.20;74.90;;;;;;4955133;29;20011;-80
2022/11/13 15:18:00;;;;;;;;;;;14.20;74.80;;;;;;4954653;29;20398;-81
2022/11/13 15:20:45;;;;;;;;;;;14.20;74.70;;;;;;4958126;29;20013;-80
2022/11/13 15:23:29;;;;;;;;;;;14.20;74.70;;;;;;4944750;29;20034;-80
2022/11/13 15:26:13;;;;;;;;;;;14.20;74.60;;;;;;4944618;29;19924;-80
2022/11/13 15:28:58;;;;;;;;;;;14.20;74.60;;;;;;4958642;29;19925;-80
2022/11/13 15:31:45;;;;;;;;;;;14.20;74.50;;;;;;4958664;29;20014;-80
2022/11/13 15:34:30;;;;;;;;;;;14.20;74.50;;;;;;4958266;29;20031;-79
2022/11/13 15:37:15;;;;;;;;;;;14.20;74.40;;;;;;4957966;29;19922;-80
2022/11/13 15:40:05;;;;;;;;;;;14.20;74.40;;;;;;4958546;29;20028;-80
2022/11/13 15:42:49;;;;;;;;;;;14.20;74.40;;;;;;4957853;29;19942;-79
2022/11/13 15:45:34;;;;;;;;;;;14.30;74.40;;;;;;4958493;29;19969;-80
2022/11/13 15:48:18;;;;;;;;;;;14.20;74.30;;;;;;4957973;29;20061;-80
2022/11/13 15:51:02;;;;;;;;;;;14.20;74.30;;;;;;4943928;29;20053;-79
2022/11/13 15:53:48;;;;;;;;;;;14.20;74.30;;;;;;4958324;29;20018;-80
2022/11/13 15:56:32;;;;;;;;;;;14.20;74.30;;;;;;4958559;29;19929;-80
2022/11/13 15:59:17;;;;;;;;;;;14.20;74.30;;;;;;4957422;29;19985;-80
2022/11/13 16:02:02;;;;;;;;;;;14.20;74.20;;;;;;4943502;29;19981;-80
2022/11/13 16:04:46;;;;;;;;;;;14.20;74.20;;;;;;4957988;29;20292;-82
2022/11/13 16:07:30;;;;;;;;;;;14.20;74.20;;;;;;4943356;29;20065;-79
2022/11/13 16:10:14;;;;;;;;;;;14.20;74.10;;;;;;4943263;29;19921;-81
2022/11/13 16:12:58;;;;;;;;;;;14.20;74.10;;;;;;4956707;29;19981;-80
2022/11/13 16:15:43;;;;;;;;;;;14.20;74.00;;;;;;4957715;29;20043;-79